createdAt,value
2023-03-25T00:00:15.475Z,100.00
2023-03-25T00:03:04.522Z,100.00
2023-03-25T00:05:33.779Z,100.00
2023-03-25T00:08:01.248Z,100.00
2023-03-25T00:10:28.249Z,100.00
2023-03-25T00:13:04.798Z,100.00
2023-03-25T00:15:33.961Z,100.00
2023-03-25T00:18:02.096Z,100.00
2023-03-25T00:20:34.302Z,100.00
2023-03-25T00:23:01.414Z,100.00
2023-03-25T00:25:28.318Z,100.00
2023-03-25T00:27:55.536Z,100.00
2023-03-25T00:30:22.438Z,100.00
2023-03-25T00:32:50.327Z,100.00
2023-03-25T00:35:19.712Z,100.00
2023-03-25T00:37:52.297Z,100.00
2023-03-25T00:40:19.544Z,100.00
2023-03-25T00:42:50.521Z,100.00
2023-03-25T00:45:17.553Z,100.00
2023-03-25T00:47:45.189Z,100.00
2023-03-25T00:50:12.231Z,100.00
2023-03-25T00:52:39.460Z,100.00
2023-03-25T00:55:06.455Z,100.00
2023-03-25T00:57:33.618Z,100.00
2023-03-25T01:00:00.566Z,100.00
2023-03-25T01:02:28.305Z,100.00
2023-03-25T01:04:57.709Z,100.00
2023-03-25T01:07:29.297Z,100.00
2023-03-25T01:09:57.159Z,100.00
2023-03-25T01:12:25.906Z,100.00
2023-03-25T01:14:55.745Z,100.00
2023-03-25T01:17:23.269Z,100.00
2023-03-25T01:19:50.661Z,100.00
2023-03-25T01:22:18.035Z,100.00
2023-03-25T01:24:44.932Z,100.00
2023-03-25T01:27:16.790Z,100.00
2023-03-25T01:29:46.248Z,100.00
2023-03-25T01:32:13.432Z,100.00
2023-03-25T01:34:42.906Z,100.00
2023-03-25T01:37:10.301Z,100.00
2023-03-25T01:39:38.287Z,100.00
2023-03-25T01:42:06.025Z,100.00
2023-03-25T01:44:33.611Z,100.00
2023-03-25T01:47:03.688Z,100.00
2023-03-25T01:49:39.275Z,100.00
2023-03-25T01:52:11.500Z,100.00
2023-03-25T01:54:39.104Z,100.00
2023-03-25T01:57:07.997Z,100.00
2023-03-25T01:59:35.081Z,100.00
2023-03-25T02:02:04.051Z,100.00
2023-03-25T02:04:39.346Z,100.00
2023-03-25T02:07:10.323Z,100.00
2023-03-25T02:09:38.133Z,100.00
2023-03-25T02:12:07.608Z,100.00
2023-03-25T02:14:36.115Z,100.00
2023-03-25T02:17:12.179Z,100.00
2023-03-25T02:20:13.832Z,100.00
2023-03-25T02:22:47.674Z,100.00
2023-03-25T02:25:16.140Z,100.00
2023-03-25T02:27:52.925Z,100.00
2023-03-25T02:30:23.006Z,100.00
2023-03-25T02:33:07.307Z,100.00
2023-03-25T02:35:37.790Z,100.00
2023-03-25T02:38:06.552Z,100.00
2023-03-25T02:40:42.062Z,100.00
2023-03-25T02:43:21.267Z,100.00
2023-03-25T02:45:52.621Z,100.00
2023-03-25T02:48:33.273Z,100.00
2023-03-25T02:51:04.360Z,100.00
2023-03-25T02:53:33.911Z,100.00
2023-03-25T02:56:03.562Z,100.00
2023-03-25T02:58:31.828Z,100.00
2023-03-25T03:00:59.142Z,100.00
2023-03-25T03:03:27.382Z,100.00
2023-03-25T03:05:59.094Z,100.00
2023-03-25T03:08:26.523Z,100.00
2023-03-25T03:10:58.625Z,100.00
2023-03-25T03:13:37.324Z,100.00
2023-03-25T03:16:14.199Z,100.00
2023-03-25T03:18:42.410Z,100.00
2023-03-25T03:21:16.652Z,100.00
2023-03-25T03:23:51.490Z,100.00
2023-03-25T03:26:28.748Z,100.00
2023-03-25T03:29:08.442Z,100.00
2023-03-25T03:31:50.872Z,100.00
2023-03-25T03:34:27.613Z,100.00
2023-03-25T03:36:55.876Z,100.00
2023-03-25T03:39:28.675Z,100.00
2023-03-25T03:42:01.852Z,100.00
2023-03-25T03:44:32.110Z,100.00
2023-03-25T03:47:12.039Z,100.00
2023-03-25T03:49:43.059Z,100.00
2023-03-25T03:52:17.153Z,100.00
2023-03-25T03:54:49.564Z,100.00
2023-03-25T03:57:22.937Z,100.00
2023-03-25T03:59:50.046Z,100.00
2023-03-25T04:02:27.321Z,100.00
2023-03-25T04:04:54.842Z,100.00
2023-03-25T04:07:39.198Z,100.00
2023-03-25T04:10:14.907Z,100.00
2023-03-25T04:12:44.571Z,100.00
2023-03-25T04:15:12.135Z,100.00
2023-03-25T04:17:39.430Z,100.00
2023-03-25T04:20:11.648Z,100.00
2023-03-25T04:22:38.616Z,100.00
2023-03-25T04:25:06.416Z,100.00
2023-03-25T04:27:33.324Z,100.00
2023-03-25T04:30:01.915Z,100.00
2023-03-25T04:32:29.006Z,100.00
2023-03-25T04:34:57.858Z,100.00
2023-03-25T04:37:27.884Z,100.00
2023-03-25T04:39:56.185Z,100.00
2023-03-25T04:42:25.830Z,100.00
2023-03-25T04:44:53.005Z,100.00
2023-03-25T04:47:23.399Z,100.00
2023-03-25T04:49:51.120Z,100.00
2023-03-25T04:52:17.999Z,100.00
2023-03-25T04:54:45.156Z,100.00
2023-03-25T04:57:12.092Z,100.00
2023-03-25T04:59:39.275Z,100.00
2023-03-25T05:02:06.864Z,100.00
2023-03-25T05:04:36.135Z,100.00
2023-03-25T05:07:03.981Z,100.00
2023-03-25T05:09:31.740Z,100.00
2023-03-25T05:11:58.742Z,100.00
2023-03-25T05:14:26.070Z,100.00
2023-03-25T05:16:53.000Z,100.00
2023-03-25T05:19:22.608Z,100.00
2023-03-25T05:21:49.451Z,100.00
2023-03-25T05:24:16.863Z,100.00
2023-03-25T05:26:43.753Z,100.00
2023-03-25T05:29:15.097Z,100.00
2023-03-25T05:31:42.841Z,100.00
2023-03-25T05:34:10.075Z,100.00
2023-03-25T05:36:37.139Z,100.00
2023-03-25T05:39:05.608Z,100.00
2023-03-25T05:41:33.052Z,100.00
2023-03-25T05:44:03.727Z,100.00
2023-03-25T05:46:30.798Z,100.00
2023-03-25T05:48:58.005Z,100.00
2023-03-25T05:51:25.707Z,100.00
2023-03-25T05:53:53.342Z,100.00
2023-03-25T05:56:21.321Z,100.00
2023-03-25T05:58:49.770Z,100.00
2023-03-25T06:01:32.005Z,100.00
2023-03-25T06:04:02.407Z,100.00
2023-03-25T06:06:32.113Z,100.00
2023-03-25T06:08:59.892Z,100.00
2023-03-25T06:11:26.820Z,100.00
2023-03-25T06:13:54.025Z,100.00
2023-03-25T06:16:22.122Z,100.00
2023-03-25T06:18:56.619Z,100.00
2023-03-25T06:21:24.214Z,100.00
2023-03-25T06:23:51.448Z,100.00
2023-03-25T06:26:18.904Z,100.00
2023-03-25T06:28:46.184Z,100.00
2023-03-25T06:31:17.804Z,100.00
2023-03-25T06:33:45.527Z,100.00
2023-03-25T06:36:13.184Z,100.00
2023-03-25T06:38:40.450Z,100.00
2023-03-25T06:41:15.594Z,100.00
2023-03-25T06:43:43.459Z,100.00
2023-03-25T06:46:29.134Z,100.00
2023-03-25T06:49:24.007Z,100.00
2023-03-25T06:51:53.337Z,100.00
2023-03-25T06:54:20.700Z,100.00
2023-03-25T06:56:47.610Z,100.00
2023-03-25T06:59:14.897Z,100.00
2023-03-25T07:01:43.054Z,100.00
2023-03-25T07:04:10.806Z,100.00
2023-03-25T07:06:37.774Z,100.00
2023-03-25T07:09:04.955Z,100.00
2023-03-25T07:11:32.676Z,100.00
2023-03-25T07:13:59.971Z,100.00
2023-03-25T07:16:27.607Z,100.00
2023-03-25T07:18:56.793Z,100.00
2023-03-25T07:21:23.926Z,100.00
2023-03-25T07:23:51.464Z,100.00
2023-03-25T07:26:18.645Z,100.00
2023-03-25T07:28:48.006Z,100.00
2023-03-25T07:31:16.471Z,100.00
2023-03-25T07:33:43.691Z,100.00
2023-03-25T07:36:11.500Z,100.00
2023-03-25T07:38:38.716Z,96.88
2023-03-25T07:41:09.574Z,97.32
2023-03-25T07:43:36.850Z,93.99
2023-03-25T07:46:19.887Z,94.70
2023-03-25T07:48:47.246Z,94.41
2023-03-25T07:51:14.143Z,96.12
2023-03-25T07:53:45.312Z,92.67
2023-03-25T07:56:15.017Z,88.06
2023-03-25T07:58:42.314Z,87.14
2023-03-25T08:01:11.872Z,86.79
2023-03-25T08:03:40.112Z,86.36
2023-03-25T08:06:07.715Z,85.64
2023-03-25T08:08:34.984Z,85.31
2023-03-25T08:11:04.329Z,84.61
2023-03-25T08:13:31.895Z,84.39
2023-03-25T08:16:01.243Z,83.67
2023-03-25T08:18:31.525Z,84.52
2023-03-25T08:20:58.382Z,84.99
2023-03-25T08:23:26.733Z,86.62
2023-03-25T08:25:54.741Z,85.93
2023-03-25T08:28:24.978Z,86.34
2023-03-25T08:30:55.351Z,85.42
2023-03-25T08:33:27.490Z,85.44
2023-03-25T08:35:57.329Z,85.08
2023-03-25T08:38:25.500Z,83.99
2023-03-25T08:40:52.648Z,84.18
2023-03-25T08:43:19.939Z,82.95
2023-03-25T08:45:46.869Z,82.23
2023-03-25T08:48:14.072Z,82.36
2023-03-25T08:50:40.957Z,82.47
2023-03-25T08:53:08.221Z,80.83
2023-03-25T08:55:35.203Z,80.67
2023-03-25T08:58:02.706Z,82.28
2023-03-25T09:00:29.747Z,79.27
2023-03-25T09:02:59.109Z,80.32
2023-03-25T09:05:27.005Z,79.34
2023-03-25T09:07:56.348Z,79.01
2023-03-25T09:10:23.299Z,80.12
2023-03-25T09:12:51.429Z,79.41
2023-03-25T09:15:18.605Z,79.72
2023-03-25T09:17:48.321Z,78.73
2023-03-25T09:20:15.726Z,78.39
2023-03-25T09:22:42.992Z,77.92
2023-03-25T09:25:10.821Z,77.68
2023-03-25T09:27:38.026Z,77.81
2023-03-25T09:30:06.276Z,76.58
2023-03-25T09:32:33.807Z,76.45
2023-03-25T09:35:00.915Z,75.00
2023-03-25T09:37:28.376Z,74.71
2023-03-25T09:39:55.273Z,75.67
2023-03-25T09:42:28.552Z,75.66
2023-03-25T09:45:13.840Z,76.88
2023-03-25T09:47:59.401Z,75.46
2023-03-25T09:50:28.889Z,74.71
2023-03-25T09:52:59.165Z,74.03
2023-03-25T09:55:28.578Z,72.31
2023-03-25T09:58:22.269Z,71.89
2023-03-25T10:00:56.914Z,71.07
2023-03-25T10:03:28.650Z,70.29
2023-03-25T10:05:55.507Z,71.20
2023-03-25T10:08:22.656Z,70.60
2023-03-25T10:11:12.231Z,69.45
2023-03-25T10:14:00.481Z,69.72
2023-03-25T10:16:27.571Z,69.40
2023-03-25T10:18:57.085Z,68.47
2023-03-25T10:21:38.581Z,70.10
2023-03-25T10:24:24.532Z,69.36
2023-03-25T10:26:54.634Z,69.32
2023-03-25T10:29:26.468Z,68.54
2023-03-25T10:31:59.807Z,67.89
2023-03-25T10:34:36.185Z,68.33
2023-03-25T10:37:07.855Z,66.96
2023-03-25T10:39:38.227Z,67.89
2023-03-25T10:42:15.874Z,66.51
2023-03-25T10:44:44.555Z,66.58
2023-03-25T10:47:22.358Z,65.49
2023-03-25T10:49:49.948Z,64.94
2023-03-25T10:52:19.693Z,65.23
2023-03-25T10:54:50.893Z,64.95
2023-03-25T10:57:28.148Z,64.90
2023-03-25T10:59:55.732Z,63.94
2023-03-25T11:02:25.669Z,62.55
2023-03-25T11:04:56.158Z,58.73
2023-03-25T11:07:30.287Z,58.63
2023-03-25T11:10:16.074Z,58.60
2023-03-25T11:12:46.644Z,58.28
2023-03-25T11:15:34.331Z,60.84
2023-03-25T11:18:19.737Z,61.63
2023-03-25T11:20:54.510Z,62.18
2023-03-25T11:23:29.758Z,61.25
2023-03-25T11:26:01.890Z,60.30
2023-03-25T11:28:31.775Z,58.82
2023-03-25T11:31:09.163Z,58.10
2023-03-25T11:33:42.171Z,56.77
2023-03-25T11:36:30.020Z,56.55
2023-03-25T11:38:58.691Z,55.21
2023-03-25T11:41:32.993Z,54.58
2023-03-25T11:44:00.582Z,53.71
2023-03-25T11:46:27.918Z,46.50
2023-03-25T11:48:55.357Z,48.19
2023-03-25T11:51:28.548Z,47.50
2023-03-25T11:54:05.155Z,49.70
2023-03-25T11:56:42.858Z,52.50
2023-03-25T11:59:17.941Z,52.11
2023-03-25T12:01:49.923Z,51.61
2023-03-25T12:04:21.407Z,51.05
2023-03-25T12:06:58.104Z,50.64
2023-03-25T12:09:30.467Z,50.77
2023-03-25T12:12:16.785Z,51.49
2023-03-25T12:14:46.659Z,51.79
2023-03-25T12:17:37.253Z,52.04
2023-03-25T12:20:12.592Z,51.11
2023-03-25T12:22:58.675Z,54.39
2023-03-25T12:25:32.270Z,54.94
2023-03-25T12:28:14.984Z,53.48
2023-03-25T12:30:49.102Z,55.26
2023-03-25T12:33:35.104Z,51.11
2023-03-25T12:36:07.852Z,50.18
2023-03-25T12:38:45.760Z,49.72
2023-03-25T12:41:15.756Z,50.89
2023-03-25T12:43:54.325Z,48.97
2023-03-25T12:46:27.397Z,47.93
2023-03-25T12:49:21.074Z,48.11
2023-03-25T12:51:54.122Z,47.42
2023-03-25T12:54:50.858Z,46.83
2023-03-25T12:57:36.075Z,46.97
2023-03-25T13:00:23.218Z,47.66
2023-03-25T13:02:50.144Z,47.46
2023-03-25T13:05:17.445Z,46.14
2023-03-25T13:07:47.528Z,46.03
2023-03-25T13:10:14.792Z,45.49
2023-03-25T13:12:46.175Z,45.66
2023-03-25T13:15:26.803Z,44.78
2023-03-25T13:18:07.470Z,44.57
2023-03-25T13:20:37.937Z,46.10
2023-03-25T13:23:06.624Z,46.85
2023-03-25T13:25:45.627Z,46.66
2023-03-25T13:28:16.194Z,46.67
2023-03-25T13:30:46.065Z,45.40
2023-03-25T13:33:13.997Z,47.46
2023-03-25T13:36:04.802Z,46.13
2023-03-25T13:38:34.245Z,47.21
2023-03-25T13:41:06.970Z,47.93
2023-03-25T13:43:49.711Z,45.44
2023-03-25T13:46:19.916Z,45.58
2023-03-25T13:49:05.581Z,46.33
2023-03-25T13:51:33.147Z,46.74
2023-03-25T13:54:05.220Z,46.09
2023-03-25T13:56:46.235Z,46.58
2023-03-25T13:59:13.156Z,46.93
2023-03-25T14:01:43.403Z,46.88
2023-03-25T14:04:22.640Z,47.56
2023-03-25T14:06:56.350Z,48.03
2023-03-25T14:09:49.645Z,47.64
2023-03-25T14:12:19.019Z,47.94
2023-03-25T14:14:50.218Z,47.68
2023-03-25T14:17:18.785Z,47.85
2023-03-25T14:19:50.151Z,49.79
2023-03-25T14:22:18.788Z,49.20
2023-03-25T14:24:46.411Z,49.00
2023-03-25T14:27:18.047Z,50.01
2023-03-25T14:29:55.594Z,50.12
2023-03-25T14:32:22.832Z,51.18
2023-03-25T14:34:53.045Z,50.90
2023-03-25T14:37:27.161Z,50.40
2023-03-25T14:40:00.890Z,51.54
2023-03-25T14:42:43.562Z,51.93
2023-03-25T14:45:29.975Z,51.52
2023-03-25T14:47:59.544Z,52.60
2023-03-25T14:50:27.814Z,53.80
2023-03-25T14:52:58.393Z,53.16
2023-03-25T14:55:32.444Z,53.89
2023-03-25T14:58:13.948Z,52.92
2023-03-25T15:00:42.593Z,54.06
2023-03-25T15:03:14.353Z,54.79
2023-03-25T15:05:42.559Z,56.29
2023-03-25T15:08:14.484Z,53.52
2023-03-25T15:10:48.564Z,53.60
2023-03-25T15:13:21.790Z,53.73
2023-03-25T15:15:50.464Z,54.34
2023-03-25T15:18:36.879Z,52.79
2023-03-25T15:21:10.481Z,50.54
2023-03-25T15:23:47.602Z,51.75
2023-03-25T15:26:20.484Z,51.30
2023-03-25T15:28:50.793Z,50.65
2023-03-25T15:31:29.325Z,49.75
2023-03-25T15:33:59.620Z,50.66
2023-03-25T15:36:31.250Z,49.82
2023-03-25T15:39:08.510Z,50.28
2023-03-25T15:41:41.820Z,49.31
2023-03-25T15:44:27.761Z,47.66
2023-03-25T15:47:11.350Z,46.41
2023-03-25T15:49:49.444Z,45.63
2023-03-25T15:52:20.355Z,45.17
2023-03-25T15:55:02.276Z,45.07
2023-03-25T15:57:30.511Z,44.15
2023-03-25T16:00:20.800Z,44.68
2023-03-25T16:03:14.013Z,44.34
2023-03-25T16:05:49.751Z,43.64
2023-03-25T16:08:25.099Z,44.05
2023-03-25T16:10:53.302Z,43.77
2023-03-25T16:13:25.697Z,44.38
2023-03-25T16:15:54.742Z,44.30
2023-03-25T16:18:22.705Z,45.10
2023-03-25T16:21:01.694Z,45.17
2023-03-25T16:23:29.593Z,44.94
2023-03-25T16:25:56.937Z,45.18
2023-03-25T16:28:33.896Z,45.42
2023-03-25T16:31:03.080Z,45.37
2023-03-25T16:33:32.148Z,46.08
2023-03-25T16:36:01.055Z,46.63
2023-03-25T16:38:29.159Z,51.69
2023-03-25T16:41:01.653Z,59.37
2023-03-25T16:43:29.616Z,68.34
2023-03-25T16:45:58.870Z,79.38
2023-03-25T16:48:31.816Z,81.94
2023-03-25T16:51:29.126Z,84.77
2023-03-25T16:54:01.768Z,87.89
2023-03-25T16:56:30.061Z,98.43
2023-03-25T16:59:05.621Z,98.51
2023-03-25T17:01:38.872Z,95.42
2023-03-25T17:04:11.710Z,90.49
2023-03-25T17:06:41.188Z,86.39
2023-03-25T17:09:12.186Z,83.36
2023-03-25T17:11:42.322Z,83.05
2023-03-25T17:14:15.670Z,82.23
2023-03-25T17:16:43.458Z,79.91
2023-03-25T17:19:14.114Z,92.58
2023-03-25T17:22:17.594Z,96.97
2023-03-25T17:24:54.013Z,100.00
2023-03-25T17:27:26.758Z,100.00
2023-03-25T17:30:01.103Z,100.00
2023-03-25T17:32:30.990Z,100.00
2023-03-25T17:35:04.638Z,100.00
2023-03-25T17:37:33.759Z,100.00
2023-03-25T17:40:06.760Z,100.00
2023-03-25T17:42:36.195Z,100.00
2023-03-25T17:45:03.353Z,100.00
2023-03-25T17:47:32.681Z,100.00
2023-03-25T17:50:04.179Z,100.00
2023-03-25T17:52:32.122Z,100.00
2023-03-25T17:55:00.154Z,100.00
2023-03-25T17:57:27.645Z,100.00
2023-03-25T17:59:55.793Z,100.00
2023-03-25T18:02:24.400Z,100.00
2023-03-25T18:04:52.167Z,100.00
2023-03-25T18:07:22.335Z,100.00
2023-03-25T18:09:49.891Z,100.00
2023-03-25T18:12:17.763Z,100.00
2023-03-25T18:14:45.186Z,100.00
2023-03-25T18:17:13.059Z,100.00
2023-03-25T18:19:42.893Z,100.00
2023-03-25T18:22:19.967Z,100.00
2023-03-25T18:24:48.017Z,100.00
2023-03-25T18:27:16.230Z,100.00
2023-03-25T18:29:44.092Z,100.00
2023-03-25T18:32:14.540Z,100.00
2023-03-25T18:34:42.183Z,100.00
2023-03-25T18:37:12.313Z,100.00
2023-03-25T18:39:39.851Z,100.00
2023-03-25T18:42:10.175Z,100.00
2023-03-25T18:44:39.085Z,100.00
2023-03-25T18:47:07.112Z,100.00
2023-03-25T18:49:34.910Z,100.00
2023-03-25T18:52:05.562Z,100.00
2023-03-25T18:54:33.426Z,100.00
2023-03-25T18:57:01.510Z,100.00
2023-03-25T18:59:29.972Z,100.00
2023-03-25T19:01:59.446Z,100.00
2023-03-25T19:04:30.214Z,100.00
2023-03-25T19:06:58.473Z,100.00
2023-03-25T19:09:26.217Z,100.00
2023-03-25T19:11:54.528Z,100.00
2023-03-25T19:14:22.112Z,100.00
2023-03-25T19:17:03.214Z,100.00
2023-03-25T19:19:31.837Z,100.00
2023-03-25T19:21:59.780Z,100.00
2023-03-25T19:24:27.589Z,100.00
2023-03-25T19:26:55.338Z,100.00
2023-03-25T19:29:24.487Z,100.00
2023-03-25T19:31:52.715Z,100.00
2023-03-25T19:34:22.604Z,100.00
2023-03-25T19:36:50.968Z,100.00
2023-03-25T19:39:19.307Z,100.00
2023-03-25T19:41:50.257Z,100.00
2023-03-25T19:44:20.368Z,100.00
2023-03-25T19:46:48.475Z,100.00
2023-03-25T19:49:25.881Z,100.00
2023-03-25T19:52:01.282Z,100.00
2023-03-25T19:54:33.268Z,100.00
2023-03-25T19:57:01.632Z,100.00
2023-03-25T19:59:32.838Z,100.00
2023-03-25T20:02:01.663Z,100.00
2023-03-25T20:04:30.991Z,100.00
2023-03-25T20:06:58.604Z,100.00
2023-03-25T20:09:30.633Z,100.00
2023-03-25T20:12:01.271Z,100.00
2023-03-25T20:14:29.177Z,100.00
2023-03-25T20:16:57.284Z,100.00
2023-03-25T20:19:27.521Z,100.00
2023-03-25T20:21:58.829Z,100.00
2023-03-25T20:24:27.361Z,99.85
2023-03-25T20:26:55.729Z,100.00
2023-03-25T20:29:25.070Z,100.00
2023-03-25T20:31:54.363Z,100.00
2023-03-25T20:34:22.291Z,100.00
2023-03-25T20:36:51.944Z,100.00
2023-03-25T20:39:19.918Z,100.00
2023-03-25T20:41:48.200Z,100.00
2023-03-25T20:44:17.964Z,100.00
2023-03-25T20:46:47.139Z,100.00
2023-03-25T20:49:15.622Z,100.00
2023-03-25T20:51:43.863Z,100.00
2023-03-25T20:54:12.526Z,100.00
2023-03-25T20:56:40.275Z,100.00
2023-03-25T20:59:09.704Z,100.00
2023-03-25T21:01:38.680Z,100.00
2023-03-25T21:04:10.184Z,100.00
2023-03-25T21:06:43.833Z,100.00
2023-03-25T21:09:14.225Z,100.00
2023-03-25T21:11:42.082Z,100.00
2023-03-25T21:14:10.665Z,100.00
2023-03-25T21:16:39.464Z,100.00
2023-03-25T21:19:08.347Z,100.00
2023-03-25T21:21:37.102Z,100.00
2023-03-25T21:24:04.453Z,100.00
2023-03-25T21:26:32.415Z,100.00
2023-03-25T21:29:00.265Z,100.00
2023-03-25T21:31:28.447Z,100.00
2023-03-25T21:33:56.510Z,100.00
2023-03-25T21:36:28.081Z,100.00
2023-03-25T21:38:56.392Z,100.00
2023-03-25T21:41:23.948Z,100.00
2023-03-25T21:43:52.539Z,100.00
2023-03-25T21:46:24.308Z,100.00
2023-03-25T21:48:51.969Z,100.00
2023-03-25T21:51:20.428Z,100.00
2023-03-25T21:53:47.599Z,100.00
2023-03-25T21:56:17.420Z,100.00
2023-03-25T21:58:45.214Z,100.00
2023-03-25T22:01:14.108Z,100.00
2023-03-25T22:03:45.494Z,100.00
2023-03-25T22:06:14.390Z,100.00
2023-03-25T22:08:41.776Z,100.00
2023-03-25T22:11:14.168Z,100.00
2023-03-25T22:13:41.685Z,100.00
2023-03-25T22:16:10.133Z,100.00
2023-03-25T22:18:37.780Z,100.00
2023-03-25T22:21:08.980Z,100.00
2023-03-25T22:23:36.249Z,100.00
2023-03-25T22:26:04.116Z,100.00
2023-03-25T22:28:31.173Z,100.00
2023-03-25T22:30:58.502Z,100.00
2023-03-25T22:33:26.759Z,100.00
2023-03-25T22:36:02.044Z,100.00
2023-03-25T22:38:31.261Z,100.00
2023-03-25T22:41:02.448Z,100.00
2023-03-25T22:43:32.709Z,100.00
2023-03-25T22:46:02.661Z,100.00
2023-03-25T22:48:30.524Z,100.00
2023-03-25T22:50:58.142Z,100.00
2023-03-25T22:53:26.265Z,100.00
2023-03-25T22:55:55.261Z,100.00
2023-03-25T22:58:23.346Z,100.00
2023-03-25T23:00:51.211Z,100.00
2023-03-25T23:03:18.619Z,100.00
2023-03-25T23:05:57.659Z,100.00
2023-03-25T23:08:30.089Z,100.00
2023-03-25T23:11:01.687Z,100.00
2023-03-25T23:13:30.234Z,100.00
2023-03-25T23:15:58.940Z,100.00
2023-03-25T23:18:28.123Z,100.00
2023-03-25T23:20:55.993Z,100.00
2023-03-25T23:23:23.994Z,100.00
2023-03-25T23:26:04.787Z,100.00
2023-03-25T23:28:34.464Z,100.00
2023-03-25T23:31:03.387Z,100.00
2023-03-25T23:33:30.600Z,100.00
2023-03-25T23:36:05.389Z,100.00
2023-03-25T23:38:32.496Z,100.00
2023-03-25T23:41:03.891Z,100.00
2023-03-25T23:43:30.943Z,100.00
2023-03-25T23:45:58.224Z,100.00
2023-03-25T23:48:26.166Z,100.00
2023-03-25T23:50:54.065Z,100.00
2023-03-25T23:53:21.815Z,100.00
2023-03-25T23:55:50.378Z,100.00
2023-03-25T23:58:17.936Z,100.00
